Time;durP1;ratioP1;P1;durP2;ratioP2;P2;SDS_P1;SDS_P2;PMS_P1;PMS_P2;Temp;Humidity;BMP_temperature;BMP_pressure;BME280_temperature;BME280_humidity;BME280_pressure;Samples;Min_cycle;Max_cycle;Signal;HPM_P1;HPM_P2
2022/05/12 00:01:24;;;;;;;10.48;3.88;;;10.50;99.90;;;;;;5056241;28;20044;-73
2022/05/12 00:03:51;;;;;;;9.43;3.58;;;10.50;99.90;;;;;;5056122;28;20381;-74
2022/05/12 00:06:18;;;;;;;13.20;4.82;;;10.50;99.90;;;;;;5054584;28;20041;-72
2022/05/12 00:08:45;;;;;;;10.35;4.72;;;10.40;99.90;;;;;;5054529;28;20044;-73
2022/05/12 00:11:11;;;;;;;11.00;4.30;;;10.40;99.90;;;;;;5055692;28;20075;-74
2022/05/12 00:13:38;;;;;;;9.85;3.47;;;10.40;99.90;;;;;;5054499;28;20045;-73
2022/05/12 00:16:05;;;;;;;7.80;3.88;;;10.30;99.90;;;;;;5055995;28;20040;-72
2022/05/12 00:18:32;;;;;;;12.52;4.05;;;10.30;99.90;;;;;;5037912;28;20041;-72
2022/05/12 00:20:59;;;;;;;8.90;3.83;;;10.30;99.90;;;;;;5054434;28;20048;-73
2022/05/12 00:23:27;;;;;;;9.45;3.75;;;10.20;99.90;;;;;;5055778;28;20063;-73
2022/05/12 00:25:54;;;;;;;7.90;3.65;;;10.10;99.90;;;;;;5038079;28;20049;-73
2022/05/12 00:28:22;;;;;;;6.70;3.40;;;10.10;99.90;;;;;;5038158;28;20049;-72
2022/05/12 00:30:50;;;;;;;12.52;4.65;;;10.10;99.90;;;;;;5038470;28;20052;-73
2022/05/12 00:33:18;;;;;;;12.82;5.13;;;10.10;99.90;;;;;;5054451;28;20048;-73
2022/05/12 00:35:45;;;;;;;17.33;4.57;;;10.00;99.90;;;;;;5054354;28;20070;-73
2022/05/12 00:38:12;;;;;;;7.72;4.30;;;9.90;99.90;;;;;;5054030;28;20044;-72
2022/05/12 00:40:40;;;;;;;8.38;3.92;;;9.90;99.90;;;;;;5054278;28;20144;-73
2022/05/12 00:43:09;;;;;;;6.80;4.05;;;9.90;99.90;;;;;;5054955;28;20044;-73
2022/05/12 00:45:36;;;;;;;10.50;4.63;;;9.90;99.90;;;;;;5055036;28;20052;-73
2022/05/12 00:48:04;;;;;;;12.48;4.18;;;9.90;99.90;;;;;;5037612;28;20048;-73
2022/05/12 00:50:33;;;;;;;8.48;4.15;;;9.90;99.90;;;;;;5053945;28;20484;-73
2022/05/12 00:53:00;;;;;;;12.20;4.35;;;9.80;99.90;;;;;;5038150;28;20041;-73
2022/05/12 00:55:30;;;;;;;13.15;4.38;;;9.80;99.90;;;;;;5053821;28;20583;-72
2022/05/12 00:57:57;;;;;;;8.32;3.63;;;9.80;99.90;;;;;;5037397;28;20040;-73
2022/05/12 01:00:24;;;;;;;15.10;4.97;;;9.80;99.90;;;;;;5053463;28;20053;-73
2022/05/12 01:02:54;;;;;;;12.63;4.13;;;9.80;99.90;;;;;;5055115;28;20048;-73
2022/05/12 01:05:22;;;;;;;9.23;3.80;;;9.70;99.90;;;;;;5054495;28;20137;-74
2022/05/12 01:07:51;;;;;;;9.63;4.07;;;9.70;99.90;;;;;;5054118;28;20067;-74
2022/05/12 01:10:18;;;;;;;8.52;4.38;;;9.60;99.90;;;;;;5053788;28;20044;-74
2022/05/12 01:12:46;;;;;;;9.75;3.95;;;9.60;99.90;;;;;;5053667;28;20053;-73
2022/05/12 01:15:12;;;;;;;11.15;4.72;;;9.60;99.90;;;;;;5053626;28;20045;-73
2022/05/12 01:17:39;;;;;;;8.80;4.10;;;9.50;99.90;;;;;;5054481;28;20055;-72
2022/05/12 01:20:07;;;;;;;6.15;3.50;;;9.50;99.90;;;;;;5055256;28;20048;-72
2022/05/12 01:22:41;;;;;;;6.22;3.45;;;9.50;99.90;;;;;;5054237;28;20217;-73
2022/05/12 01:25:11;;;;;;;8.60;4.10;;;9.50;99.90;;;;;;5053137;28;20048;-73
2022/05/12 01:27:39;;;;;;;;;;;9.40;99.90;;;;;;5053544;28;20037;-73
2022/05/12 01:30:07;;;;;;;9.68;3.88;;;9.40;99.90;;;;;;5036994;28;19916;-73
2022/05/12 01:32:34;;;;;;;7.53;3.05;;;9.30;99.90;;;;;;5054044;28;20052;-72
2022/05/12 01:35:01;;;;;;;8.82;3.75;;;9.30;99.90;;;;;;5054200;28;20045;-73
2022/05/12 01:37:28;;;;;;;6.53;3.00;;;9.30;99.90;;;;;;5054920;28;20044;-72
2022/05/12 01:39:54;;;;;;;11.18;4.25;;;9.20;99.90;;;;;;5055186;28;20131;-72
2022/05/12 01:42:21;;;;;;;7.25;3.90;;;9.20;99.90;;;;;;5052771;28;20055;-72
2022/05/12 01:44:48;;;;;;;7.72;3.17;;;9.20;99.90;;;;;;5052645;28;20365;-73
2022/05/12 01:47:15;;;;;;;7.50;3.10;;;9.20;99.90;;;;;;5052961;28;20049;-72
2022/05/12 01:49:42;;;;;;;7.80;3.63;;;9.20;99.90;;;;;;5053829;28;20052;-73
2022/05/12 01:52:10;;;;;;;8.60;3.92;;;9.10;99.90;;;;;;5036367;28;20052;-72
2022/05/12 01:54:37;;;;;;;8.98;4.18;;;9.10;99.90;;;;;;5052841;28;20047;-72
2022/05/12 01:57:04;;;;;;;7.45;3.70;;;9.00;99.90;;;;;;5054810;28;20194;-71
2022/05/12 01:59:31;;;;;;;10.85;3.78;;;9.00;99.90;;;;;;5053783;28;20504;-72
2022/05/12 02:01:58;;;;;;;8.73;3.55;;;9.10;99.90;;;;;;5052730;28;20045;-72
2022/05/12 02:04:25;;;;;;;5.90;3.45;;;9.10;99.90;;;;;;5052834;28;20131;-73
2022/05/12 02:06:52;;;;;;;9.68;3.63;;;9.00;99.90;;;;;;5053944;28;20045;-73
2022/05/12 02:09:19;;;;;;;8.90;4.70;;;9.00;99.90;;;;;;5052338;28;20041;-72
2022/05/12 02:11:46;;;;;;;6.35;3.35;;;9.00;99.90;;;;;;5036953;28;20045;-72
2022/05/12 02:14:14;;;;;;;12.60;6.05;;;9.00;99.90;;;;;;5053377;28;20047;-72
2022/05/12 02:16:40;;;;;;;11.55;3.35;;;8.90;99.90;;;;;;5053686;28;20479;-72
2022/05/12 02:19:08;;;;;;;10.13;4.22;;;8.90;99.90;;;;;;5051839;28;20041;-73
2022/05/12 02:21:35;;;;;;;9.15;3.60;;;8.90;99.90;;;;;;5052152;28;20037;-72
2022/05/12 02:24:02;;;;;;;10.15;4.00;;;8.90;99.90;;;;;;5053547;28;20045;-73
2022/05/12 02:26:29;;;;;;;11.75;4.35;;;8.80;99.90;;;;;;5053573;28;20037;-74
2022/05/12 02:28:56;;;;;;;7.50;3.42;;;8.80;99.90;;;;;;5052379;28;20384;-73
2022/05/12 02:31:23;;;;;;;10.05;3.15;;;8.80;99.90;;;;;;5052608;28;20049;-73
2022/05/12 02:33:50;;;;;;;5.47;3.15;;;8.80;99.90;;;;;;5054047;28;20048;-73
2022/05/12 02:36:17;;;;;;;8.13;3.33;;;8.80;99.90;;;;;;5051987;28;20045;-72
2022/05/12 02:38:44;;;;;;;10.75;4.22;;;8.80;99.90;;;;;;5053048;28;20056;-73
2022/05/12 02:41:11;;;;;;;14.25;4.25;;;8.80;99.90;;;;;;5053412;28;20037;-71
2022/05/12 02:43:38;;;;;;;8.20;3.25;;;8.80;99.90;;;;;;5053082;28;20048;-72
2022/05/12 02:46:06;;;;;;;9.07;3.53;;;8.70;99.90;;;;;;5052041;28;20056;-71
2022/05/12 02:48:35;;;;;;;7.82;3.30;;;8.60;99.90;;;;;;5054167;28;20048;-72
2022/05/12 02:51:02;;;;;;;11.95;3.28;;;8.70;99.90;;;;;;5052979;28;20037;-71
2022/05/12 02:53:29;;;;;;;5.13;2.90;;;8.70;99.90;;;;;;5051790;28;20051;-71
2022/05/12 02:55:57;;;;;;;11.00;3.47;;;8.70;99.90;;;;;;5052010;28;20064;-72
2022/05/12 02:58:24;;;;;;;9.48;4.07;;;8.70;99.90;;;;;;5053209;28;20052;-71
2022/05/12 03:00:52;;;;;;;9.63;4.07;;;8.60;99.90;;;;;;5052004;28;20045;-72
2022/05/12 03:03:19;;;;;;;10.85;3.17;;;8.60;99.90;;;;;;5053550;28;20053;-72
2022/05/12 03:05:46;;;;;;;9.98;3.50;;;8.60;99.90;;;;;;5053135;28;20047;-72
2022/05/12 03:08:13;;;;;;;12.00;3.53;;;8.60;99.90;;;;;;5053266;28;20044;-72
2022/05/12 03:10:39;;;;;;;6.05;3.13;;;8.60;99.90;;;;;;5052778;28;20052;-71
2022/05/12 03:13:06;;;;;;;8.25;3.25;;;8.50;99.90;;;;;;5052500;28;20041;-71
2022/05/12 03:15:33;;;;;;;8.25;3.13;;;8.60;99.90;;;;;;5051991;28;20045;-72
2022/05/12 03:18:00;;;;;;;11.52;4.05;;;8.50;99.90;;;;;;5051684;28;20045;-72
2022/05/12 03:20:29;;;;;;;8.73;3.20;;;8.60;99.90;;;;;;5053088;28;20041;-71
2022/05/12 03:22:56;;;;;;;6.05;3.17;;;8.60;99.90;;;;;;5051783;28;20072;-71
2022/05/12 03:25:23;;;;;;;11.57;4.20;;;8.60;99.90;;;;;;5052650;28;20044;-71
2022/05/12 03:27:49;;;;;;;8.40;3.78;;;8.60;99.90;;;;;;5052343;28;20049;-72
2022/05/12 03:30:19;;;;;;;11.38;4.30;;;8.60;99.90;;;;;;5053774;28;20161;-72
2022/05/12 03:32:45;;;;;;;10.05;3.58;;;8.50;99.90;;;;;;5056430;28;20045;-72
2022/05/12 03:35:12;;;;;;;10.40;3.45;;;8.60;99.90;;;;;;5056452;28;20499;-72
2022/05/12 03:37:39;;;;;;;16.20;4.55;;;8.60;99.90;;;;;;5057449;28;20073;-72
2022/05/12 03:40:07;;;;;;;10.57;3.72;;;8.50;99.90;;;;;;5056623;28;20068;-72
2022/05/12 03:42:34;;;;;;;11.70;3.63;;;8.50;99.90;;;;;;5056145;28;20056;-72
2022/05/12 03:45:01;;;;;;;11.65;3.75;;;8.50;99.90;;;;;;5054962;28;20040;-72
2022/05/12 03:47:30;;;;;;;8.63;3.33;;;8.50;99.90;;;;;;5056363;28;20041;-71
2022/05/12 03:50:01;;;;;;;8.20;3.35;;;8.50;99.90;;;;;;5055006;28;20045;-71
2022/05/12 03:52:27;;;;;;;7.88;3.00;;;8.50;99.90;;;;;;5056580;28;20043;-71
2022/05/12 03:54:54;;;;;;;10.73;3.90;;;8.50;99.90;;;;;;5055299;28;20049;-71
2022/05/12 03:57:24;;;;;;;8.88;3.03;;;8.40;99.90;;;;;;5054811;28;20044;-72
2022/05/12 03:59:51;;;;;;;9.02;4.15;;;8.40;99.90;;;;;;5054628;28;20507;-71
2022/05/12 04:02:18;;;;;;;9.80;3.53;;;8.40;99.90;;;;;;5054752;28;20037;-71
2022/05/12 04:04:46;;;;;;;7.03;3.15;;;8.40;99.90;;;;;;5055092;28;20047;-71
2022/05/12 04:07:14;;;;;;;5.65;3.05;;;8.40;99.90;;;;;;5055763;28;20041;-71
2022/05/12 04:09:41;;;;;;;9.93;3.90;;;8.30;99.90;;;;;;5055356;28;20115;-71
2022/05/12 04:12:11;;;;;;;14.60;3.85;;;8.30;99.90;;;;;;5054741;28;20047;-71
2022/05/12 04:14:39;;;;;;;16.90;4.57;;;8.30;99.90;;;;;;5055030;28;20053;-71
2022/05/12 04:17:07;;;;;;;10.10;3.30;;;8.30;99.90;;;;;;5054702;28;20048;-71
2022/05/12 04:19:34;;;;;;;7.03;3.60;;;8.30;99.90;;;;;;5054396;28;20369;-71
2022/05/12 04:22:00;;;;;;;8.98;3.60;;;8.30;99.90;;;;;;5055331;28;20051;-71
2022/05/12 04:24:27;;;;;;;9.07;3.38;;;8.30;99.90;;;;;;5055744;28;20057;-71
2022/05/12 04:26:54;;;;;;;11.65;4.32;;;8.30;99.90;;;;;;5055726;28;20098;-71
2022/05/12 04:29:21;;;;;;;7.30;3.33;;;8.30;99.90;;;;;;5055311;28;20048;-71
2022/05/12 04:31:49;;;;;;;10.63;4.55;;;8.30;99.90;;;;;;5056212;28;20048;-71
2022/05/12 04:37:01;;;;;;;6.55;2.90;;;8.30;99.90;;;;;;5055451;28;20052;-71
2022/05/12 04:39:30;;;;;;;8.95;3.03;;;8.30;99.90;;;;;;5054492;28;20041;-71
2022/05/12 04:42:03;;;;;;;18.75;5.07;;;8.30;99.90;;;;;;5055824;28;20045;-70
2022/05/12 04:44:30;;;;;;;17.50;4.85;;;8.30;99.90;;;;;;5055025;28;20477;-70
2022/05/12 04:46:57;;;;;;;7.32;3.33;;;8.30;99.90;;;;;;5055294;28;20041;-71
2022/05/12 04:49:26;;;;;;;14.65;4.22;;;8.40;99.90;;;;;;5054145;28;20064;-71
2022/05/12 04:51:53;;;;;;;6.53;3.33;;;8.40;99.90;;;;;;5054284;28;20045;-72
2022/05/12 04:54:24;;;;;;;;;;;8.40;99.90;;;;;;5055232;28;20052;-71
2022/05/12 04:56:51;;;;;;;11.73;4.38;;;8.50;99.90;;;;;;5055183;28;19923;-71
2022/05/12 04:59:18;;;;;;;12.70;4.28;;;8.70;99.90;;;;;;5037320;28;20056;-70
2022/05/12 05:01:44;;;;;;;8.52;3.40;;;9.10;99.90;;;;;;5055124;28;20045;-71
2022/05/12 05:04:11;;;;;;;8.30;3.22;;;9.50;99.90;;;;;;5054004;28;20051;-72
2022/05/12 05:06:38;;;;;;;10.00;3.55;;;9.90;99.90;;;;;;5054603;28;20044;-72
2022/05/12 05:09:06;;;;;;;9.73;3.25;;;10.40;99.90;;;;;;5053418;28;20476;-72
2022/05/12 05:11:37;;;;;;;10.50;3.45;;;10.80;99.90;;;;;;5054643;28;20041;-72
2022/05/12 05:14:05;;;;;;;8.00;3.08;;;11.20;99.90;;;;;;5054124;28;20384;-72
2022/05/12 05:16:32;;;;;;;13.18;3.80;;;11.60;99.90;;;;;;5054172;28;20041;-72
2022/05/12 05:18:59;;;;;;;8.93;3.42;;;11.90;99.90;;;;;;5054370;28;20041;-72
2022/05/12 05:21:26;;;;;;;11.13;3.15;;;12.20;99.90;;;;;;5053203;28;20051;-72
2022/05/12 05:23:52;;;;;;;15.23;4.40;;;12.50;99.90;;;;;;5053051;28;20041;-72
2022/05/12 05:26:19;;;;;;;10.30;3.53;;;12.70;99.90;;;;;;5054071;28;20048;-72
2022/05/12 05:28:47;;;;;;;10.48;3.70;;;13.10;99.90;;;;;;5053934;28;20043;-72
2022/05/12 05:31:14;;;;;;;14.43;4.40;;;13.20;99.90;;;;;;5054453;28;20051;-72
2022/05/12 05:33:41;;;;;;;11.07;3.53;;;13.40;99.90;;;;;;5054112;28;20040;-72
2022/05/12 05:36:08;;;;;;;7.57;3.17;;;13.60;99.90;;;;;;5052952;28;20052;-72
2022/05/12 05:38:36;;;;;;;9.65;3.33;;;13.80;99.90;;;;;;5054039;28;20400;-72
2022/05/12 05:41:02;;;;;;;10.10;3.60;;;14.00;99.90;;;;;;5055019;28;20130;-72
2022/05/12 05:43:29;;;;;;;14.68;4.07;;;14.20;99.90;;;;;;5037637;28;20071;-65
2022/05/12 05:45:56;;;;;;;8.30;3.22;;;14.20;99.90;;;;;;5052903;28;20041;-72
2022/05/12 05:48:23;;;;;;;33.53;24.88;;;14.20;99.90;;;;;;5053529;28;20380;-68
2022/05/12 05:53:37;;;;;;;14.52;8.93;;;13.90;99.90;;;;;;5053071;28;20052;-67
2022/05/12 05:56:07;;;;;;;13.27;5.47;;;13.80;99.90;;;;;;5053804;28;20492;-71
2022/05/12 05:58:34;;;;;;;13.30;4.25;;;13.70;99.90;;;;;;5054198;28;20159;-72
2022/05/12 06:01:01;;;;;;;14.25;4.10;;;13.50;99.90;;;;;;5052610;28;20045;-73
2022/05/12 06:03:28;;;;;;;7.93;3.33;;;13.50;99.90;;;;;;5054715;28;20049;-74
2022/05/12 06:05:56;;;;;;;7.20;3.28;;;13.40;99.90;;;;;;5053824;28;20496;-70
2022/05/12 06:08:23;;;;;;;58.10;44.97;;;13.40;99.90;;;;;;5053997;28;20088;-74
2022/05/12 06:10:58;;;;;;;13.25;6.82;;;13.40;99.90;;;;;;5052488;28;20045;-74
2022/05/12 06:13:25;;;;;;;12.95;4.70;;;13.50;99.90;;;;;;5053502;28;20127;-72
2022/05/12 06:15:53;;;;;;;12.18;4.47;;;13.50;99.90;;;;;;5053801;28;20052;-71
2022/05/12 06:18:20;;;;;;;14.35;3.95;;;13.60;99.90;;;;;;5054574;28;20101;-73
2022/05/12 06:20:47;;;;;;;10.68;4.00;;;13.60;99.90;;;;;;5052502;28;20045;-72
2022/05/12 06:23:14;;;;;;;37.05;26.05;;;13.60;99.90;;;;;;5052500;28;20056;-72
2022/05/12 06:25:41;;;;;;;51.88;35.47;;;13.60;99.90;;;;;;5053247;28;20037;-76
2022/05/12 06:28:08;;;;;;;13.10;6.22;;;13.60;99.90;;;;;;5051996;28;20501;-71
2022/05/12 06:30:35;;;;;;;15.55;5.53;;;13.60;99.90;;;;;;5053195;28;20051;-74
2022/05/12 06:33:03;;;;;;;9.82;4.03;;;13.60;99.90;;;;;;5052918;28;20041;-73
2022/05/12 06:35:29;;;;;;;8.98;3.90;;;13.70;99.90;;;;;;5053419;28;20136;-74
2022/05/12 06:37:56;;;;;;;12.02;4.68;;;13.70;99.90;;;;;;5052672;28;20428;-74
2022/05/12 06:40:23;;;;;;;14.98;4.55;;;13.70;99.90;;;;;;5053400;28;20476;-73
2022/05/12 06:42:50;;;;;;;10.45;4.07;;;13.70;99.90;;;;;;5051927;28;20052;-72
2022/05/12 06:45:19;;;;;;;12.02;3.97;;;13.70;99.90;;;;;;5053383;28;20048;-72
2022/05/12 06:47:48;;;;;;;12.18;4.22;;;13.70;99.90;;;;;;5053475;28;20387;-70
2022/05/12 06:50:22;;;;;;;13.05;3.70;;;13.70;99.90;;;;;;5052870;28;20052;-72
2022/05/12 06:52:49;;;;;;;9.55;3.90;;;13.70;99.90;;;;;;5052814;28;20041;-73
2022/05/12 06:55:17;;;;;;;10.88;4.35;;;13.80;99.90;;;;;;5035459;28;20045;-71
2022/05/12 06:57:44;;;;;;;13.07;3.88;;;13.80;99.90;;;;;;5052924;28;20048;-71
2022/05/12 07:00:13;;;;;;;10.52;4.03;;;13.80;99.90;;;;;;5051801;28;20476;-70
2022/05/12 07:02:40;;;;;;;12.93;5.03;;;13.80;99.90;;;;;;5051710;28;20087;-69
2022/05/12 07:05:08;;;;;;;16.63;5.65;;;13.80;99.90;;;;;;5053579;28;20096;-77
2022/05/12 07:07:36;;;;;;;11.88;5.00;;;13.80;99.90;;;;;;5056116;28;20045;-73
2022/05/12 07:10:03;;;;;;;17.02;4.55;;;13.80;99.90;;;;;;5056814;28;20068;-71
2022/05/12 07:12:30;;;;;;;12.90;3.75;;;13.80;99.90;;;;;;5056055;28;20083;-75
2022/05/12 07:14:58;;;;;;;14.00;3.90;;;13.90;99.90;;;;;;5057155;28;20496;-72
2022/05/12 07:17:25;;;;;;;17.35;4.90;;;13.90;99.90;;;;;;5056686;28;20052;-71
2022/05/12 07:26:34;;;;;;;13.95;3.90;;;14.00;99.90;;;;;;5056960;28;20041;-69
2022/05/12 07:28:10;;;;;;;23.50;5.72;;;14.00;99.90;;;;;;5055115;28;20045;-71
2022/05/12 07:33:22;;;;;;;17.17;3.78;;;14.10;99.90;;;;;;5056446;28;20045;-70
2022/05/12 07:35:49;;;;;;;16.98;11.82;;;14.10;99.90;;;;;;5056799;28;20045;-72
2022/05/12 07:38:16;;;;;;;23.60;13.63;;;14.20;99.90;;;;;;5055121;28;20049;-73
2022/05/12 07:40:43;;;;;;;11.07;4.70;;;14.20;99.90;;;;;;5055428;28;20040;-72
2022/05/12 07:43:10;;;;;;;11.02;4.22;;;14.30;99.90;;;;;;5055908;28;20040;-71
2022/05/12 07:45:37;;;;;;;10.70;4.18;;;14.30;99.90;;;;;;5055199;28;20041;-71
2022/05/12 07:48:04;;;;;;;16.48;4.38;;;14.40;99.90;;;;;;5056005;28;20049;-71
2022/05/12 07:50:31;;;;;;;10.75;4.68;;;14.50;99.90;;;;;;5054918;28;20037;-71
2022/05/12 07:52:58;;;;;;;8.55;3.45;;;14.50;99.90;;;;;;5056912;28;20357;-74
2022/05/12 07:55:25;;;;;;;11.95;3.78;;;14.60;99.90;;;;;;5055990;28;20049;-71
2022/05/12 07:57:52;;;;;;;14.07;4.65;;;14.60;99.90;;;;;;5055082;28;20047;-74
2022/05/12 08:00:19;;;;;;;8.57;3.45;;;14.60;99.90;;;;;;5056872;28;20051;-73
2022/05/12 08:02:46;;;;;;;16.75;3.88;;;14.70;99.90;;;;;;5054953;28;20041;-72
2022/05/12 08:05:13;;;;;;;10.43;3.33;;;14.80;99.90;;;;;;5056139;28;20041;-70
2022/05/12 08:07:40;;;;;;;446.20;365.52;;;14.90;99.90;;;;;;5055898;28;20488;-73
2022/05/12 08:10:07;;;;;;;56.67;40.65;;;15.00;99.90;;;;;;5056275;28;20045;-74
2022/05/12 08:12:35;;;;;;;23.38;14.55;;;15.10;99.90;;;;;;5055762;28;20040;-70
2022/05/12 08:15:02;;;;;;;13.90;7.10;;;15.20;99.90;;;;;;5054691;28;20136;-65
2022/05/12 08:17:29;;;;;;;12.45;4.90;;;15.30;99.90;;;;;;5053812;28;20095;-72
2022/05/12 08:19:56;;;;;;;8.45;3.70;;;15.30;99.90;;;;;;5055920;28;20477;-77
2022/05/12 08:22:24;;;;;;;7.75;3.28;;;15.30;99.90;;;;;;5054761;28;20476;-77
2022/05/12 08:24:51;;;;;;;16.08;4.40;;;15.40;99.90;;;;;;5055320;28;20048;-74
2022/05/12 08:27:18;;;;;;;8.20;3.58;;;15.50;99.90;;;;;;5054180;28;20047;-74
2022/05/12 08:29:45;;;;;;;11.98;3.60;;;15.50;99.90;;;;;;5038162;28;20052;-74
2022/05/12 08:32:12;;;;;;;8.50;3.22;;;15.70;99.90;;;;;;5055238;28;20037;-73
2022/05/12 08:34:39;;;;;;;12.55;3.38;;;15.80;99.90;;;;;;5056134;28;20063;-73
2022/05/12 08:37:06;;;;;;;9.43;2.55;;;15.90;99.90;;;;;;5054453;28;20123;-73
2022/05/12 08:39:34;;;;;;;5.82;2.10;;;15.90;99.90;;;;;;5055532;28;20159;-73
2022/05/12 08:42:25;;;;;;;8.23;2.83;;;16.00;99.90;;;;;;5055899;28;20048;-73
2022/05/12 08:44:52;;;;;;;7.47;3.13;;;16.00;99.90;;;;;;5053892;28;20469;-72
2022/05/12 08:47:23;;;;;;;6.47;2.38;;;16.00;99.90;;;;;;5054958;28;20037;-72
2022/05/12 08:49:50;;;;;;;8.35;2.85;;;16.00;99.90;;;;;;5054084;28;20040;-73
2022/05/12 08:52:22;;;;;;;9.57;2.17;;;16.00;99.90;;;;;;5054062;28;20127;-73
2022/05/12 08:55:39;;;;;;;9.38;2.63;;;16.00;99.90;;;;;;5055663;28;20045;-73
2022/05/12 08:58:09;;;;;;;6.95;2.28;;;16.10;99.90;;;;;;5052945;28;20053;-72
2022/05/12 09:00:48;;;;;;;7.28;2.58;;;16.10;99.90;;;;;;5054200;28;20060;-73
2022/05/12 09:03:29;;;;;;;21.10;4.03;;;16.20;99.90;;;;;;5053625;28;20469;-73
2022/05/12 09:06:00;;;;;;;7.32;2.70;;;16.30;99.90;;;;;;5053463;28;20049;-73
2022/05/12 09:08:30;;;;;;;6.43;2.60;;;16.40;99.90;;;;;;5053522;28;20040;-72
2022/05/12 09:11:24;;;;;;;5.90;2.45;;;16.40;99.90;;;;;;5054523;28;20477;-72
2022/05/12 09:13:53;;;;;;;8.82;2.60;;;16.40;99.90;;;;;;5053001;28;20045;-73
2022/05/12 09:16:23;;;;;;;8.38;3.40;;;16.40;99.90;;;;;;5053349;28;20041;-72
2022/05/12 09:18:51;;;;;;;4.82;2.35;;;16.40;99.90;;;;;;5053541;28;20041;-71
2022/05/12 09:21:22;;;;;;;6.35;2.83;;;16.50;99.90;;;;;;5053152;28;20043;-72
2022/05/12 09:23:49;;;;;;;8.48;3.28;;;16.60;99.90;;;;;;5055171;28;20080;-71
2022/05/12 09:26:34;;;;;;;9.20;3.20;;;16.60;99.90;;;;;;5054560;28;20049;-71
2022/05/12 09:29:19;;;;;;;8.50;2.38;;;16.60;99.90;;;;;;5036799;28;20053;-73
2022/05/12 09:31:52;;;;;;;9.80;2.40;;;16.70;99.90;;;;;;5053358;28;20151;-72
2022/05/12 09:34:34;;;;;;;5.82;2.38;;;16.90;99.90;;;;;;5053704;28;20052;-72
2022/05/12 09:37:13;;;;;;;5.43;2.05;;;17.10;99.90;;;;;;5053662;28;20055;-72
2022/05/12 09:39:47;;;;;;;4.90;1.92;;;17.10;99.90;;;;;;5054144;28;20477;-72
2022/05/12 09:42:29;;;;;;;6.78;1.70;;;17.10;99.90;;;;;;5052876;28;20044;-72
2022/05/12 09:45:00;;;;;;;6.95;2.40;;;17.10;99.90;;;;;;5052941;28;20071;-71
2022/05/12 09:47:28;;;;;;;8.07;2.63;;;17.20;99.90;;;;;;5054890;28;20041;-72
2022/05/12 09:50:16;;;;;;;4.75;1.92;;;17.30;99.90;;;;;;5054688;28;20037;-72
2022/05/12 09:53:04;;;;;;;5.78;1.83;;;17.60;98.20;;;;;;5054666;28;20444;-71
2022/05/12 09:55:42;;;;;;;8.55;3.15;;;17.60;96.80;;;;;;5052788;28;20044;-71
2022/05/12 09:58:15;;;;;;;6.13;2.25;;;17.50;96.20;;;;;;5052556;28;20041;-72
2022/05/12 10:01:03;;;;;;;8.10;2.25;;;17.40;96.80;;;;;;5053701;28;20477;-71
2022/05/12 10:09:19;;;;;;;6.63;2.90;;;16.90;90.90;;;;;;5053930;28;20053;-72
2022/05/12 10:12:19;;;;;;;7.15;2.63;;;16.80;91.80;;;;;;5053428;28;20099;-72
2022/05/12 10:14:50;;;;;;;7.03;2.95;;;16.80;92.00;;;;;;5053201;28;20052;-72
2022/05/12 10:17:35;;;;;;;4.55;2.10;;;16.80;91.40;;;;;;5053841;28;20060;-72
2022/05/12 10:20:11;;;;;;;5.97;2.00;;;16.90;91.70;;;;;;5053400;28;20064;-72
2022/05/12 10:22:38;;;;;;;5.40;1.98;;;16.90;90.40;;;;;;5053404;28;20048;-72
2022/05/12 10:25:26;;;;;;;6.47;2.17;;;16.90;92.10;;;;;;5053777;28;20063;-72
2022/05/12 10:28:16;;;;;;;6.28;2.95;;;16.80;90.50;;;;;;5053212;28;20040;-72
2022/05/12 10:30:55;;;;;;;7.80;2.75;;;16.80;92.70;;;;;;5052100;28;20484;-72
2022/05/12 10:33:28;;;;;;;;;;;16.70;86.40;;;;;;5036376;28;20063;-72
2022/05/12 10:36:22;;;;;;;5.93;2.13;;;16.60;83.80;;;;;;5052325;28;19963;-72
2022/05/12 10:38:53;;;;;;;6.18;1.75;;;16.60;86.00;;;;;;5052919;28;20456;-76
2022/05/12 10:41:35;;;;;;;6.18;2.22;;;16.60;85.60;;;;;;5052122;28;20551;-68
2022/05/12 10:44:38;;;;;;;5.97;2.05;;;16.90;92.50;;;;;;5052900;28;20041;-69
2022/05/12 10:47:14;;;;;;;7.03;1.92;;;17.20;81.40;;;;;;5053028;28;20435;-69
2022/05/12 10:49:50;;;;;;;57.80;49.28;;;17.50;86.80;;;;;;5053757;28;20490;-80
2022/05/12 10:52:24;;;;;;;13.60;7.95;;;17.70;84.90;;;;;;5053368;28;20052;-75
2022/05/12 10:55:06;;;;;;;7.38;3.78;;;17.90;83.50;;;;;;5054836;28;20045;-77
2022/05/12 10:57:37;;;;;;;6.65;2.33;;;18.10;79.60;;;;;;5053320;28;20055;-77
2022/05/12 11:00:24;;;;;;;8.07;2.05;;;18.20;76.10;;;;;;5052992;28;20080;-79
2022/05/12 11:03:15;;;;;;;4.63;2.05;;;18.50;74.40;;;;;;5035386;28;20045;-77
2022/05/12 11:05:46;;;;;;;4.97;2.10;;;18.60;75.90;;;;;;5052697;28;20049;-76
2022/05/12 11:08:19;;;;;;;4.60;1.98;;;18.80;72.50;;;;;;5051852;28;20040;-73
2022/05/12 11:10:54;;;;;;;6.50;1.88;;;18.90;74.20;;;;;;5034930;28;20049;-64
2022/05/12 11:13:47;;;;;;;5.88;2.50;;;18.90;72.50;;;;;;5052452;28;20074;-69
2022/05/12 11:16:16;;;;;;;4.30;1.92;;;18.80;72.30;;;;;;5053888;28;20036;-69
2022/05/12 11:18:51;;;;;;;3.40;1.65;;;18.60;73.30;;;;;;5052809;28;20041;-67
2022/05/12 11:21:20;;;;;;;5.72;2.60;;;18.60;70.90;;;;;;5053102;28;20047;-66
2022/05/12 11:23:50;;;;;;;;;;;18.60;71.20;;;;;;5052284;28;20044;-66
2022/05/12 11:26:26;;;;;;;5.07;1.70;;;18.60;69.50;;;;;;5051397;28;20352;-67
2022/05/12 11:32:17;;;;;;;23.70;21.17;;;19.00;71.20;;;;;;5053787;28;20051;-69
2022/05/12 11:34:46;;;;;;;10.05;5.45;;;19.20;68.60;;;;;;5051741;28;20484;-63
2022/05/12 11:37:33;;;;;;;7.03;2.88;;;19.30;71.10;;;;;;5051707;28;20465;-66
2022/05/12 11:40:44;;;;;;;6.22;1.70;;;19.30;67.70;;;;;;5053626;28;20047;-68
2022/05/12 11:46:45;;;;;;;5.45;2.17;;;19.20;69.90;;;;;;5052489;28;20077;-70
2022/05/12 11:49:44;;;;;;;7.32;2.00;;;19.10;71.00;;;;;;5052532;28;20047;-69
2022/05/12 11:52:35;;;;;;;6.85;1.95;;;19.00;70.40;;;;;;5053307;28;20396;-70
2022/05/12 11:55:18;;;;;;;5.55;1.90;;;19.10;72.40;;;;;;5056076;28;20539;-69
2022/05/12 11:57:45;;;;;;;10.35;2.83;;;19.10;72.50;;;;;;5054880;28;20077;-69
2022/05/12 12:00:32;;;;;;;6.72;2.53;;;19.20;72.30;;;;;;5054727;28;20049;-67
2022/05/12 12:02:59;;;;;;;6.07;2.40;;;19.10;72.80;;;;;;5055764;28;20124;-69
2022/05/12 12:05:30;;;;;;;11.70;8.48;;;19.10;70.40;;;;;;5055483;28;20131;-71
2022/05/12 12:08:06;;;;;;;58.28;50.60;;;19.10;70.10;;;;;;5056055;28;20049;-70
2022/05/12 12:10:38;;;;;;;7.32;4.80;;;19.10;70.60;;;;;;5039240;28;20052;-70
2022/05/12 12:13:15;;;;;;;7.53;2.70;;;19.40;69.30;;;;;;5054615;28;20071;-73
2022/05/12 12:15:55;;;;;;;6.68;2.58;;;19.60;68.70;;;;;;5055658;28;20380;-79
2022/05/12 12:18:24;;;;;;;5.28;1.80;;;19.40;67.80;;;;;;5054905;28;20140;-69
2022/05/12 12:20:53;;;;;;;6.90;4.30;;;19.40;68.50;;;;;;5055702;28;20036;-75
2022/05/12 12:23:33;;;;;;;10.32;7.18;;;19.40;70.00;;;;;;5054900;28;20057;-66
2022/05/12 12:26:36;;;;;;;4.63;2.10;;;19.40;69.50;;;;;;5055519;28;20041;-76
2022/05/12 12:29:09;;;;;;;6.60;1.90;;;19.30;67.70;;;;;;5054314;28;20047;-75
2022/05/12 12:31:49;;;;;;;4.88;2.10;;;19.20;68.10;;;;;;5054821;28;20045;-78
2022/05/12 12:34:18;;;;;;;5.60;2.05;;;19.00;68.40;;;;;;5054647;28;20136;-75
2022/05/12 12:36:49;;;;;;;7.10;2.00;;;19.10;71.20;;;;;;5054046;28;20052;-76
2022/05/12 12:39:37;;;;;;;4.88;2.53;;;19.10;71.90;;;;;;5055542;28;20044;-76
2022/05/12 12:42:06;;;;;;;4.80;1.70;;;19.20;67.20;;;;;;5056378;28;20063;-75
2022/05/12 12:44:32;;;;;;;5.97;1.98;;;19.30;71.80;;;;;;5055162;28;20049;-74
2022/05/12 12:47:02;;;;;;;4.68;1.90;;;19.40;68.90;;;;;;5055316;28;20465;-72
2022/05/12 12:49:32;;;;;;;5.15;1.48;;;19.70;69.30;;;;;;5056218;28;20071;-66
2022/05/12 12:52:09;;;;;;;5.53;1.83;;;19.80;67.50;;;;;;5055976;28;20041;-69
2022/05/12 12:57:49;;;;;;;4.30;2.00;;;19.70;67.90;;;;;;5054837;28;20131;-70
2022/05/12 13:00:28;;;;;;;3.30;2.15;;;19.80;65.80;;;;;;5054568;28;20049;-68
2022/05/12 13:02:58;;;;;;;7.20;2.05;;;20.00;65.10;;;;;;5055558;28;20041;-73
2022/05/12 13:05:25;;;;;;;6.53;1.83;;;20.30;68.70;;;;;;5054223;28;20056;-72
2022/05/12 13:08:01;;;;;;;4.43;1.60;;;20.50;66.90;;;;;;5053910;28;20381;-74
2022/05/12 13:10:31;;;;;;;5.95;1.77;;;20.40;64.30;;;;;;5037880;28;20357;-74
2022/05/12 13:13:05;;;;;;;5.82;1.92;;;20.20;64.40;;;;;;5054696;28;20468;-70
2022/05/12 13:15:33;;;;;;;5.10;2.22;;;20.30;66.40;;;;;;5053998;28;20298;-68
2022/05/12 13:18:04;;;;;;;6.07;2.95;;;20.50;66.60;;;;;;5053137;28;20041;-71
2022/05/12 13:20:51;;;;;;;5.03;2.15;;;20.50;63.10;;;;;;5053522;28;20045;-69
2022/05/12 13:23:25;;;;;;;7.07;2.10;;;20.50;64.70;;;;;;5053019;28;20472;-69
2022/05/12 13:25:52;;;;;;;3.83;1.95;;;20.40;65.00;;;;;;5054333;28;20044;-69
2022/05/12 13:28:23;;;;;;;9.88;1.83;;;20.30;64.90;;;;;;5054474;28;20044;-70
2022/05/12 13:30:52;;;;;;;6.10;2.30;;;20.50;66.10;;;;;;5053877;28;20044;-69
2022/05/12 13:33:25;;;;;;;5.20;1.80;;;20.60;65.60;;;;;;5053795;28;20048;-70
2022/05/12 13:36:03;;;;;;;4.00;1.50;;;20.60;62.40;;;;;;5037783;28;20124;-73